Time;durP1;ratioP1;P1;durP2;ratioP2;P2;SDS_P1;SDS_P2;PMS_P1;PMS_P2;Temp;Humidity;BMP_temperature;BMP_pressure;BME280_temperature;BME280_humidity;BME280_pressure;Samples;Min_cycle;Max_cycle;Signal;HPM_P1;HPM_P2
2024/01/05 00:01:29;;;;;;;124.55;62.33;;;;;;;6.97;80.53;100750.56;4984631;28;20161;-81
2024/01/05 00:03:56;;;;;;;129.45;63.28;;;;;;;7.00;80.57;100755.63;4972660;28;20050;-80
2024/01/05 00:06:23;;;;;;;111.68;60.25;;;;;;;6.96;81.12;100751.50;4981532;28;20065;-82
2024/01/05 00:08:51;;;;;;;128.27;62.53;;;;;;;6.81;80.91;100732.34;4986657;28;20097;-78
2024/01/05 00:11:20;;;;;;;121.72;63.40;;;;;;;6.71;80.81;100714.63;4984208;28;20042;-80
2024/01/05 00:13:47;;;;;;;142.48;66.55;;;;;;;7.12;80.93;100803.22;4993523;28;20395;-78
2024/01/05 00:16:20;;;;;;;125.90;65.07;;;;;;;7.02;81.51;100798.59;4973709;28;20050;-80
2024/01/05 00:18:49;;;;;;;132.85;66.60;;;;;;;6.95;81.73;100785.94;4964993;28;20050;-78
2024/01/05 00:21:24;;;;;;;123.25;63.95;;;;;;;6.96;81.53;100771.78;4962524;28;20058;-81
2024/01/05 00:23:53;;;;;;;125.47;64.25;;;;;;;6.84;81.12;100761.16;4969254;28;20038;-79
2024/01/05 00:26:20;;;;;;;133.57;67.90;;;;;;;6.50;81.37;100712.53;4955414;28;20078;-80
2024/01/05 00:28:50;;;;;;;124.88;62.92;;;;;;;7.00;81.04;100810.22;4978702;28;20164;-80
2024/01/05 00:31:17;;;;;;;127.05;65.20;;;;;;;6.64;81.05;100740.59;4982765;28;20232;-78
2024/01/05 00:33:45;;;;;;;127.15;62.50;;;;;;;6.96;80.83;100783.19;4985976;28;20405;-80
2024/01/05 00:36:12;;;;;;;132.27;62.25;;;;;;;6.96;81.01;100772.63;4976248;28;20049;-77
2024/01/05 00:38:47;;;;;;;120.50;62.47;;;;;;;7.03;81.30;100773.88;4961709;28;20419;-80
2024/01/05 00:41:17;;;;;;;139.32;68.28;;;;;;;7.03;81.39;100776.50;4974980;28;20046;-79
2024/01/05 00:43:44;;;;;;;134.13;66.40;;;;;;;6.99;81.16;100774.19;4986686;28;20526;-79
2024/01/05 00:46:11;;;;;;;126.03;63.22;;;;;;;6.99;81.13;100783.00;4980743;28;20409;-81
2024/01/05 00:48:38;;;;;;;128.95;63.88;;;;;;;6.94;81.29;100774.56;4980430;28;20057;-79
2024/01/05 00:51:05;;;;;;;138.68;69.80;;;;;;;6.79;82.15;100750.06;4982671;28;20466;-80
2024/01/05 00:53:32;;;;;;;146.10;70.07;;;;;;;6.88;82.13;100768.84;4965358;28;20432;-79
2024/01/05 00:55:59;;;;;;;144.45;67.25;;;;;;;6.89;82.00;100781.94;4953057;28;20242;-79
2024/01/05 00:58:26;;;;;;;144.57;67.53;;;;;;;6.88;82.37;100774.97;4969731;28;20158;-79
2024/01/05 01:00:55;;;;;;;150.63;68.90;;;;;;;6.78;82.49;100773.94;4963460;28;20436;-79
2024/01/05 01:03:28;;;;;;;142.90;67.78;;;;;;;6.76;83.02;100774.03;4949924;28;20517;-80
2024/01/05 01:05:55;;;;;;;160.88;67.82;;;;;;;6.72;83.37;100784.91;4968668;28;20213;-77
2024/01/05 01:08:22;;;;;;;148.05;68.78;;;;;;;6.68;83.96;100788.75;4984097;28;20093;-81
2024/01/05 01:10:49;;;;;;;147.60;70.32;;;;;;;6.56;83.94;100775.44;4974816;28;20498;-78
2024/01/05 01:13:19;;;;;;;154.70;68.70;;;;;;;6.55;84.63;100786.09;4982225;28;20499;-80
2024/01/05 01:15:49;;;;;;;135.15;66.53;;;;;;;6.53;84.85;100786.22;4964956;28;20457;-79
2024/01/05 01:18:16;;;;;;;148.45;69.43;;;;;;;6.58;84.57;100778.81;4959082;28;20125;-79
2024/01/05 01:20:46;;;;;;;122.88;63.47;;;;;;;6.44;84.74;100767.53;4953544;28;20509;-79
2024/01/05 01:23:14;;;;;;;130.80;64.28;;;;;;;6.35;84.98;100751.38;4966999;28;20050;-81
2024/01/05 01:25:43;;;;;;;124.88;62.15;;;;;;;6.37;85.75;100770.59;4962607;28;20050;-80
2024/01/05 01:28:13;;;;;;;144.45;61.72;;;;;;;6.37;86.00;100775.84;4955388;28;20493;-80
2024/01/05 01:30:40;;;;;;;143.90;64.88;;;;;;;6.36;85.81;100779.44;4955082;28;20056;-80
2024/01/05 01:33:07;;;;;;;136.60;61.85;;;;;;;6.31;86.04;100776.28;4962706;28;20069;-79
2024/01/05 01:35:34;;;;;;;146.55;65.28;;;;;;;6.21;86.30;100754.13;4961628;28;20149;-78
2024/01/05 01:38:01;;;;;;;141.77;67.50;;;;;;;6.30;86.80;100771.09;4971257;28;20043;-79
2024/01/05 01:40:31;;;;;;;129.88;67.43;;;;;;;6.33;87.27;100771.72;4979280;28;20061;-80
2024/01/05 01:42:58;;;;;;;137.35;64.97;;;;;;;6.30;87.18;100768.47;4956904;28;20118;-81
2024/01/05 01:45:25;;;;;;;148.48;64.72;;;;;;;6.22;86.64;100729.47;4963004;28;20517;-81
2024/01/05 01:47:52;;;;;;;135.30;64.97;;;;;;;6.20;86.87;100740.09;4948268;28;20042;-81
2024/01/05 01:50:20;;;;;;;137.32;66.38;;;;;;;6.26;87.06;100761.72;4930661;28;20226;-80
2024/01/05 01:52:47;;;;;;;121.47;61.38;;;;;;;6.27;87.16;100771.31;4955502;28;20100;-80
2024/01/05 01:55:16;;;;;;;131.02;64.70;;;;;;;6.27;86.69;100763.41;4971991;28;20501;-80
2024/01/05 01:57:43;;;;;;;127.53;61.03;;;;;;;6.23;86.98;100762.75;4978455;28;20245;-81
2024/01/05 02:00:13;;;;;;;121.13;62.95;;;;;;;6.23;86.83;100759.28;4973957;28;20054;-79
2024/01/05 02:02:42;;;;;;;124.65;60.80;;;;;;;6.09;86.60;100742.63;4960061;28;20054;-79
2024/01/05 02:05:09;;;;;;;124.28;60.78;;;;;;;6.24;87.01;100755.69;4955257;28;20457;-79
2024/01/05 02:07:36;;;;;;;127.28;60.80;;;;;;;5.92;85.72;100682.28;4987567;28;20057;-80
2024/01/05 02:10:03;;;;;;;130.38;63.70;;;;;;;6.33;86.32;100765.63;4967287;28;20151;-80
2024/01/05 02:12:30;;;;;;;129.00;63.35;;;;;;;6.34;85.85;100769.97;4981622;28;20084;-78
2024/01/05 02:14:57;;;;;;;125.13;62.55;;;;;;;6.29;86.45;100761.53;4983289;28;20046;-79
2024/01/05 02:17:32;;;;;;;116.72;59.10;;;;;;;6.47;86.19;100759.41;4959576;28;20046;-80
2024/01/05 02:20:02;;;;;;;137.93;62.67;;;;;;;6.46;86.77;100762.97;4969665;28;20062;-79
2024/01/05 02:22:34;;;;;;;123.63;60.55;;;;;;;6.47;86.77;100760.25;4954966;28;20057;-79
2024/01/05 02:25:01;;;;;;;130.57;63.08;;;;;;;6.76;85.16;100752.09;4959343;28;20742;-79
2024/01/05 02:27:32;;;;;;;132.25;63.47;;;;;;;6.58;86.29;100759.50;4957159;28;20181;-80
2024/01/05 02:29:59;;;;;;;132.77;60.63;;;;;;;6.17;87.09;100700.78;4967012;28;20057;-78
2024/01/05 02:32:26;;;;;;;135.95;65.78;;;;;;;6.48;88.34;100751.41;4973301;28;20137;-80
2024/01/05 02:35:01;;;;;;;168.03;67.87;;;;;;;6.49;87.73;100763.63;4946227;28;20488;-80
2024/01/05 02:37:29;;;;;;;149.35;63.10;;;;;;;6.27;88.51;100713.31;4972015;28;20125;-80
2024/01/05 02:39:56;;;;;;;144.13;66.63;;;;;;;6.54;88.76;100756.22;4971320;28;20050;-79
2024/01/05 02:42:25;;;;;;;150.88;66.40;;;;;;;6.57;88.12;100753.38;4965194;28;20460;-78
2024/01/05 02:44:52;;;;;;;140.25;67.10;;;;;;;6.29;88.17;100709.63;4979037;28;20440;-79
2024/01/05 02:47:19;;;;;;;136.65;64.72;;;;;;;6.46;88.81;100733.97;4962965;28;20508;-78
2024/01/05 02:49:46;;;;;;;147.48;65.75;;;;;;;6.41;88.67;100718.50;4974192;28;20516;-80
2024/01/05 02:52:13;;;;;;;139.68;67.75;;;;;;;6.70;88.47;100756.03;4970802;28;20777;-80
2024/01/05 02:54:44;;;;;;;150.63;67.20;;;;;;;6.67;88.24;100744.81;4963112;28;20061;-78
2024/01/05 02:57:10;;;;;;;146.40;64.13;;;;;;;6.66;88.28;100753.69;4964438;28;20042;-79
2024/01/05 02:59:37;;;;;;;136.88;62.20;;;;;;;6.49;88.09;100716.16;4968587;28;20491;-81
2024/01/05 03:02:04;;;;;;;152.27;67.22;;;;;;;6.53;88.56;100712.34;4963059;28;20512;-79
2024/01/05 03:04:31;;;;;;;155.88;64.40;;;;;;;6.76;88.05;100745.00;4963569;28;20190;-80
2024/01/05 03:07:02;;;;;;;141.38;65.47;;;;;;;6.73;88.49;100734.69;4972255;28;20054;-80
2024/01/05 03:09:30;;;;;;;161.30;68.03;;;;;;;6.80;88.57;100741.22;4967794;28;20054;-80
2024/01/05 03:11:56;;;;;;;151.10;67.53;;;;;;;6.80;88.21;100741.22;5003849;28;20132;-79
2024/01/05 03:14:27;;;;;;;148.93;62.88;;;;;;;6.63;88.46;100696.72;4974496;28;20516;-78
2024/01/05 03:16:53;;;;;;;156.88;68.68;;;;;;;6.81;88.66;100720.94;4965173;28;20054;-82
2024/01/05 03:19:30;;;;;;;154.82;66.40;;;;;;;6.88;88.28;100722.19;4964263;28;20055;-80
2024/01/05 03:21:57;;;;;;;152.77;66.63;;;;;;;6.68;88.06;100685.84;4969584;28;20042;-81
2024/01/05 03:24:27;;;;;;;171.32;68.18;;;;;;;7.00;88.12;100734.50;4954213;28;20476;-79
2024/01/05 03:26:54;;;;;;;143.50;63.25;;;;;;;7.01;87.85;100730.06;4969216;28;20506;-82
2024/01/05 03:29:21;;;;;;;153.05;66.10;;;;;;;6.93;87.26;100709.50;4965300;28;20050;-80
2024/01/05 03:31:48;;;;;;;152.48;62.40;;;;;;;6.61;87.15;100649.34;4955532;28;20133;-80
2024/01/05 03:34:17;;;;;;;156.10;65.30;;;;;;;7.09;87.41;100724.22;4961095;28;20070;-78
2024/01/05 03:36:44;;;;;;;160.70;64.68;;;;;;;7.11;87.22;100730.25;4968924;28;20050;-79
2024/01/05 03:39:11;;;;;;;158.60;65.70;;;;;;;7.04;87.39;100706.94;4960946;28;20050;-81
2024/01/05 03:41:40;;;;;;;149.60;65.20;;;;;;;6.99;86.92;100682.69;4965106;28;20414;-79
2024/01/05 03:44:10;;;;;;;155.10;62.83;;;;;;;6.79;86.89;100664.78;4951866;28;20494;-81
2024/01/05 03:46:43;;;;;;;153.52;64.55;;;;;;;7.11;87.23;100717.03;4912630;28;20061;-79
2024/01/05 03:49:17;;;;;;;139.32;61.38;;;;;;;7.06;87.22;100720.00;4941804;28;20143;-79
2024/01/05 03:51:44;;;;;;;156.60;66.55;;;;;;;7.00;87.86;100700.19;4964129;28;20533;-79
2024/01/05 03:54:11;;;;;;;167.13;66.68;;;;;;;7.15;87.33;100723.78;4961675;28;20313;-80
2024/01/05 03:56:46;;;;;;;160.40;65.10;;;;;;;7.18;87.36;100723.56;4977158;28;20458;-80
2024/01/05 03:59:14;;;;;;;151.98;68.18;;;;;;;7.12;87.32;100713.47;4973496;28;20141;-79
2024/01/05 04:01:44;;;;;;;166.35;68.15;;;;;;;7.27;87.54;100733.47;4959721;28;20057;-81
2024/01/05 04:04:13;;;;;;;146.57;60.47;;;;;;;6.78;87.44;100648.13;4977137;28;20350;-80
2024/01/05 04:06:40;;;;;;;173.63;68.00;;;;;;;7.27;87.33;100725.53;4961209;28;20525;-79
2024/01/05 04:09:14;;;;;;;154.73;65.38;;;;;;;7.17;87.04;100696.31;4977687;28;20413;-78
2024/01/05 04:11:42;;;;;;;151.43;64.53;;;;;;;7.12;87.23;100681.78;4978657;28;20085;-79
2024/01/05 04:14:09;;;;;;;155.65;64.22;;;;;;;7.29;87.04;100702.50;4973569;28;20049;-80
2024/01/05 04:16:39;;;;;;;156.40;65.50;;;;;;;7.35;86.78;100707.31;4968758;28;20054;-80
2024/01/05 04:19:08;;;;;;;145.98;65.93;;;;;;;7.34;87.27;100707.47;4963943;28;20409;-79
2024/01/05 04:21:38;;;;;;;152.70;64.00;;;;;;;7.35;87.33;100694.13;4959173;28;20286;-80
2024/01/05 04:24:07;;;;;;;146.50;60.97;;;;;;;7.40;87.30;100705.22;4957868;28;20490;-79
2024/01/05 04:26:34;;;;;;;165.65;65.55;;;;;;;7.15;87.61;100663.06;4963708;28;20050;-81
2024/01/05 04:29:01;;;;;;;149.32;63.72;;;;;;;7.24;87.35;100665.03;4956719;28;20817;-81
2024/01/05 04:31:32;;;;;;;156.10;66.47;;;;;;;7.37;87.04;100671.09;4956349;28;20050;-80
2024/01/05 04:34:08;;;;;;;155.07;64.60;;;;;;;7.55;86.49;100694.44;4963998;28;20056;-79
2024/01/05 04:36:35;;;;;;;148.80;62.17;;;;;;;7.40;86.35;100675.28;4951128;28;20042;-80
2024/01/05 04:39:09;;;;;;;143.10;60.83;;;;;;;7.54;86.67;100695.41;4950505;28;20050;-80
2024/01/05 04:41:37;;;;;;;154.60;63.00;;;;;;;7.54;86.65;100682.19;4962327;28;20053;-79
2024/01/05 04:44:04;;;;;;;133.90;59.28;;;;;;;7.58;86.38;100683.66;4955054;28;20345;-81
2024/01/05 04:46:32;;;;;;;137.23;59.38;;;;;;;7.41;86.74;100656.72;4964935;28;20487;-78
2024/01/05 04:49:11;;;;;;;136.77;59.10;;;;;;;7.35;86.46;100636.03;4962769;28;20104;-81
2024/01/05 04:51:38;;;;;;;142.38;60.67;;;;;;;7.56;86.45;100669.72;4958354;28;20100;-81
2024/01/05 04:54:07;;;;;;;132.70;58.65;;;;;;;7.67;86.02;100672.38;4968790;28;20157;-80
2024/01/05 04:56:37;;;;;;;138.32;55.00;;;;;;;7.79;85.75;100675.91;4951813;28;20050;-82
2024/01/05 04:59:04;;;;;;;131.90;57.10;;;;;;;7.65;85.68;100666.41;4966965;28;20042;-80
2024/01/05 05:01:31;;;;;;;132.45;59.00;;;;;;;7.75;86.01;100677.09;4965706;28;20057;-81
2024/01/05 05:03:57;;;;;;;136.05;58.47;;;;;;;7.74;86.06;100657.75;4963555;28;20066;-83
2024/01/05 05:06:27;;;;;;;130.60;57.55;;;;;;;7.53;86.63;100635.63;4972595;28;20065;-79
2024/01/05 05:08:56;;;;;;;131.70;59.13;;;;;;;7.63;86.00;100644.53;4964873;28;20152;-80
2024/01/05 05:11:23;;;;;;;122.90;55.00;;;;;;;7.64;85.90;100646.19;4975976;28;20137;-83
2024/01/05 05:13:50;;;;;;;129.93;59.58;;;;;;;7.46;86.71;100612.28;4971787;28;20046;-81
2024/01/05 05:16:22;;;;;;;131.35;59.03;;;;;;;7.63;86.06;100639.25;4965672;28;20061;-81
2024/01/05 05:18:50;;;;;;;122.75;54.72;;;;;;;7.66;86.34;100660.13;4972977;28;20149;-82
2024/01/05 05:21:22;;;;;;;125.53;55.22;;;;;;;7.47;87.30;100629.81;4962938;28;20050;-80
2024/01/05 05:23:49;;;;;;;123.45;55.05;;;;;;;7.61;86.56;100630.59;4969319;28;20426;-80
2024/01/05 05:26:16;;;;;;;117.38;52.08;;;;;;;7.56;87.02;100616.88;4956148;28;20058;-81
2024/01/05 05:28:43;;;;;;;115.47;53.10;;;;;;;7.74;87.18;100648.97;4947320;28;20050;-80
2024/01/05 05:31:10;;;;;;;106.05;51.08;;;;;;;7.79;87.19;100650.34;4938807;28;20142;-81
2024/01/05 05:33:37;;;;;;;110.65;51.40;;;;;;;7.58;86.81;100607.88;4967462;28;20046;-80
2024/01/05 05:36:04;;;;;;;115.43;53.90;;;;;;;7.72;87.19;100646.47;4969147;28;20655;-80
2024/01/05 05:38:35;;;;;;;119.05;52.38;;;;;;;7.71;87.62;100639.50;4956802;28;20533;-82
2024/01/05 05:41:02;;;;;;;107.40;51.22;;;;;;;7.77;87.27;100641.69;4973323;28;20105;-82
2024/01/05 05:43:33;;;;;;;113.35;49.47;;;;;;;7.81;87.45;100644.91;4957390;28;20233;-82
2024/01/05 05:46:00;;;;;;;104.78;46.67;;;;;;;7.80;87.53;100635.31;4973110;28;20065;-82
2024/01/05 05:48:27;;;;;;;108.07;47.80;;;;;;;7.46;87.20;100591.16;4974438;28;20046;-80
2024/01/05 05:50:54;;;;;;;102.18;48.55;;;;;;;7.68;87.41;100631.81;4968636;28;20205;-81
2024/01/05 05:53:21;;;;;;;107.07;48.35;;;;;;;7.62;87.15;100625.19;4981283;28;20506;-81
2024/01/05 05:55:48;;;;;;;99.28;48.13;;;;;;;7.69;87.54;100638.75;4995911;28;20054;-80
2024/01/05 05:58:16;;;;;;;100.47;48.10;;;;;;;7.47;87.97;100608.69;4984992;28;20080;-80
2024/01/05 06:00:43;;;;;;;98.90;48.83;;;;;;;7.60;87.28;100621.00;4997210;28;20478;-79
2024/01/05 06:03:10;;;;;;;104.95;46.55;;;;;;;7.96;86.67;100672.84;4997047;28;20050;-80
2024/01/05 06:05:41;;;;;;;106.18;46.70;;;;;;;7.75;87.19;100643.59;4991207;28;20145;-79
2024/01/05 06:08:09;;;;;;;105.05;48.65;;;;;;;7.73;87.88;100653.44;4979111;28;20046;-82
2024/01/05 06:10:39;;;;;;;102.95;49.50;;;;;;;7.84;87.73;100666.69;4969992;28;20404;-80
2024/01/05 06:13:15;;;;;;;94.60;46.47;;;;;;;7.59;87.69;100637.78;4966253;28;20051;-81
2024/01/05 06:15:50;;;;;;;97.57;46.92;;;;;;;7.80;88.24;100665.22;4975339;28;20064;-81
2024/01/05 06:18:19;;;;;;;98.22;45.53;;;;;;;7.76;88.43;100665.56;4995967;28;20393;-80
2024/01/05 06:20:45;;;;;;;92.60;46.25;;;;;;;7.76;88.36;100655.84;4978989;28;20508;-80
2024/01/05 06:23:12;;;;;;;88.20;45.45;;;;;;;7.56;87.97;100616.88;4987561;28;20052;-79
2024/01/05 06:25:42;;;;;;;93.43;46.13;;;;;;;7.60;87.96;100621.00;4977244;28;20583;-80
2024/01/05 06:28:10;;;;;;;99.80;50.17;;;;;;;7.80;87.77;100644.06;4985666;28;20405;-80
2024/01/05 06:30:37;;;;;;;97.55;47.33;;;;;;;7.76;88.36;100645.25;4965198;28;20046;-80
2024/01/05 06:33:06;;;;;;;94.68;47.00;;;;;;;7.70;88.43;100617.50;4976253;28;20478;-80
2024/01/05 06:35:33;;;;;;;90.68;44.40;;;;;;;7.44;87.12;100542.88;4965090;28;20050;-81
2024/01/05 06:38:00;;;;;;;88.95;46.00;;;;;;;7.82;87.15;100623.66;4980091;28;20062;-79
2024/01/05 06:40:33;;;;;;;86.00;45.53;;;;;;;7.68;87.89;100610.66;4966881;28;20053;-80
2024/01/05 06:43:03;;;;;;;88.43;45.08;;;;;;;7.82;88.41;100634.22;4974015;28;20057;-80
2024/01/05 06:45:30;;;;;;;97.35;45.63;;;;;;;7.85;87.94;100631.34;4977263;28;20191;-79
2024/01/05 06:47:59;;;;;;;87.82;43.45;;;;;;;7.62;88.32;100601.41;4987619;28;20132;-81
2024/01/05 06:50:27;;;;;;;96.97;47.17;;;;;;;7.80;88.58;100617.66;4959640;28;20194;-80
2024/01/05 06:52:58;;;;;;;95.57;45.20;;;;;;;7.87;87.75;100616.22;4970758;28;20046;-78
2024/01/05 06:55:25;;;;;;;90.20;44.60;;;;;;;7.66;88.45;100573.78;4963003;28;20137;-78
2024/01/05 06:57:53;;;;;;;88.82;43.22;;;;;;;7.75;88.25;100611.88;4958318;28;20300;-79
2024/01/05 07:00:25;;;;;;;86.90;42.58;;;;;;;7.81;88.44;100619.31;4963531;28;20042;-80
2024/01/05 07:02:56;;;;;;;85.57;44.60;;;;;;;7.78;88.93;100616.91;4971465;28;20054;-78
2024/01/05 07:05:30;;;;;;;81.10;42.20;;;;;;;7.77;88.78;100612.59;4974293;28;20055;-79
2024/01/05 07:07:58;;;;;;;84.25;44.47;;;;;;;7.81;88.39;100602.63;4962350;28;20050;-79
2024/01/05 07:10:25;;;;;;;87.28;44.70;;;;;;;7.92;87.90;100618.50;4982584;28;20065;-79
2024/01/05 07:12:52;;;;;;;83.13;43.15;;;;;;;7.77;88.44;100609.97;4988918;28;20056;-80
2024/01/05 07:15:19;;;;;;;81.10;42.50;;;;;;;7.82;88.66;100602.53;4999540;28;20058;-80
2024/01/05 07:17:46;;;;;;;72.53;40.95;;;;;;;7.86;88.23;100596.03;4980337;28;20108;-81
2024/01/05 07:20:13;;;;;;;74.40;41.83;;;;;;;7.83;88.32;100590.13;4958716;28;20296;-79
2024/01/05 07:22:40;;;;;;;80.63;42.22;;;;;;;7.76;88.81;100586.28;4946277;28;20348;-80
2024/01/05 07:25:15;;;;;;;78.50;40.85;;;;;;;7.53;88.46;100557.19;4956010;28;20062;-81
2024/01/05 07:27:42;;;;;;;69.50;38.65;;;;;;;7.82;88.91;100591.13;4963905;28;20152;-80
2024/01/05 07:30:10;;;;;;;74.18;38.80;;;;;;;7.39;88.91;100515.16;4949239;28;20042;-79
2024/01/05 07:32:37;;;;;;;70.80;39.55;;;;;;;7.88;89.40;100599.38;4961356;28;20054;-80
2024/01/05 07:35:05;;;;;;;74.85;38.85;;;;;;;7.47;88.97;100524.16;4936748;28;20125;-81
2024/01/05 07:37:31;;;;;;;66.15;36.25;;;;;;;7.96;89.16;100611.16;4924251;28;20364;-82
2024/01/05 07:39:58;;;;;;;68.25;36.67;;;;;;;7.93;89.38;100606.97;4952181;28;21038;-81
2024/01/05 07:42:28;;;;;;;70.35;39.08;;;;;;;7.72;89.66;100575.13;4946779;28;20392;-78
2024/01/05 07:44:57;;;;;;;70.78;39.13;;;;;;;7.90;90.04;100608.03;4986889;28;20152;-80
2024/01/05 07:47:27;;;;;;;;;;;;;;;7.96;89.97;100603.22;4977056;28;20593;-79
2024/01/05 07:49:53;;;;;;;69.40;39.38;;;;;;;7.65;90.24;100563.34;4984498;28;20116;-80
2024/01/05 07:52:21;;;;;;;64.82;36.92;;;;;;;8.00;89.85;100599.41;4954377;28;20046;-79
2024/01/05 07:54:48;;;;;;;64.40;38.58;;;;;;;7.88;90.34;100590.63;4948845;28;20540;-81
2024/01/05 07:57:15;;;;;;;68.90;37.72;;;;;;;7.85;90.45;100567.91;4976451;28;20066;-80
2024/01/05 07:59:49;;;;;;;64.20;37.38;;;;;;;8.00;89.91;100591.47;4956827;28;20057;-81
2024/01/05 08:02:16;;;;;;;66.57;37.75;;;;;;;7.92;90.40;100586.78;4930390;28;20080;-81
2024/01/05 08:04:43;;;;;;;62.85;38.70;;;;;;;7.86;90.45;100572.25;4980224;28;20313;-80
2024/01/05 08:07:10;;;;;;;61.65;36.30;;;;;;;7.89;90.83;100555.31;4972904;28;20054;-81
2024/01/05 08:09:36;;;;;;;64.63;36.17;;;;;;;8.01;91.06;100572.00;4956605;28;20319;-81
2024/01/05 08:12:11;;;;;;;68.57;39.15;;;;;;;7.98;90.90;100578.34;4954945;28;20057;-81
2024/01/05 08:14:43;;;;;;;62.85;37.40;;;;;;;8.05;91.05;100573.44;4961553;28;20116;-80
2024/01/05 08:17:20;;;;;;;67.05;38.47;;;;;;;8.11;90.89;100583.53;4952813;28;20133;-81
2024/01/05 08:19:47;;;;;;;67.68;37.67;;;;;;;8.07;90.55;100579.44;4956954;28;20046;-80
2024/01/05 08:22:14;;;;;;;61.28;37.40;;;;;;;8.05;90.37;100566.34;4963672;28;20046;-81
2024/01/05 08:24:41;;;;;;;64.75;36.75;;;;;;;8.12;90.52;100574.63;4957780;28;20050;-81
2024/01/05 08:27:08;;;;;;;64.97;38.30;;;;;;;8.21;90.01;100586.31;4982507;28;20042;-80
2024/01/05 08:29:35;;;;;;;62.10;38.42;;;;;;;8.19;90.85;100589.06;4980394;28;20045;-81
2024/01/05 08:32:02;;;;;;;67.68;38.60;;;;;;;8.29;90.41;100583.88;4976922;28;20050;-81
2024/01/05 08:34:29;;;;;;;62.42;37.30;;;;;;;8.17;90.47;100558.41;4980910;28;20049;-82
2024/01/05 08:36:56;;;;;;;68.40;40.53;;;;;;;7.84;90.33;100529.25;4947349;28;20041;-82
2024/01/05 08:39:23;;;;;;;72.30;37.92;;;;;;;8.32;90.66;100604.78;4961250;28;20049;-81
2024/01/05 08:41:51;;;;;;;67.45;36.58;;;;;;;8.25;91.08;100615.03;4963733;28;20050;-81
2024/01/05 08:44:23;;;;;;;67.85;36.10;;;;;;;8.12;91.06;100582.56;4957874;28;20046;-83
2024/01/05 08:46:49;;;;;;;;;;;;;;;8.26;90.54;100603.47;4956885;28;20043;-81
2024/01/05 08:49:18;;;;;;;62.90;36.17;;;;;;;8.17;91.61;100596.28;4957075;28;19959;-82
2024/01/05 08:51:45;;;;;;;72.82;38.80;;;;;;;7.94;91.81;100555.78;4961372;28;20050;-80
2024/01/05 08:54:12;;;;;;;72.75;39.17;;;;;;;8.25;91.55;100596.53;4971536;28;20058;-81
2024/01/05 08:56:40;;;;;;;71.50;37.83;;;;;;;7.93;90.79;100525.84;4984879;28;20046;-81
2024/01/05 08:59:07;;;;;;;68.38;39.22;;;;;;;8.24;90.85;100571.03;4950416;28;20512;-80
2024/01/05 09:01:34;;;;;;;62.70;36.72;;;;;;;8.22;90.59;100583.50;4960147;28;20410;-80
2024/01/05 09:04:05;;;;;;;66.55;37.78;;;;;;;8.32;90.80;100605.63;4968591;28;20049;-80
2024/01/05 09:06:33;;;;;;;63.30;38.25;;;;;;;8.23;90.77;100579.06;4972527;28;20512;-82
2024/01/05 09:09:02;;;;;;;72.75;39.83;;;;;;;8.20;91.83;100585.44;4963682;28;20519;-81
2024/01/05 09:11:30;;;;;;;67.28;36.40;;;;;;;8.26;92.32;100589.41;4972311;28;20122;-82
2024/01/05 09:13:57;;;;;;;69.30;38.45;;;;;;;8.26;92.46;100600.84;4959145;28;20219;-80
2024/01/05 09:16:23;;;;;;;62.83;38.15;;;;;;;8.31;92.20;100598.66;4970006;28;20496;-81
2024/01/05 09:18:54;;;;;;;71.90;38.05;;;;;;;8.31;90.76;100566.91;4961076;28;20145;-82
2024/01/05 09:21:21;;;;;;;71.03;39.22;;;;;;;8.34;91.11;100592.28;4979896;28;20748;-81
2024/01/05 09:23:55;;;;;;;64.13;38.92;;;;;;;8.01;90.97;100527.91;4955740;28;20054;-82
2024/01/05 09:26:26;;;;;;;75.97;39.78;;;;;;;8.28;91.12;100582.22;4954267;28;20193;-82
2024/01/05 09:28:53;;;;;;;66.20;40.38;;;;;;;8.20;91.36;100582.78;4971056;28;20054;-83
2024/01/05 09:31:20;;;;;;;73.68;40.20;;;;;;;8.12;91.44;100545.56;4970236;28;20139;-82
2024/01/05 09:33:49;;;;;;;72.72;39.28;;;;;;;8.13;91.35;100556.03;4943152;28;20050;-83
2024/01/05 09:36:20;;;;;;;;;;;;;;;8.40;91.78;100586.56;4971708;28;20453;-82
2024/01/05 09:38:46;;;;;;;79.88;41.75;;;;;;;8.39;91.27;100576.06;4942447;28;19926;-82
2024/01/05 09:41:15;;;;;;;70.15;39.92;;;;;;;8.14;92.10;100549.75;4967000;28;20045;-84
2024/01/05 09:43:49;;;;;;;74.28;39.35;;;;;;;8.36;91.50;100563.91;4971066;28;20128;-84
2024/01/05 09:46:18;;;;;;;76.18;42.50;;;;;;;8.40;91.98;100569.81;4963064;28;20132;-83
2024/01/05 09:48:45;;;;;;;68.38;41.50;;;;;;;8.45;91.01;100551.78;4976873;28;20057;-83
2024/01/05 09:51:21;;;;;;;77.35;40.42;;;;;;;8.48;91.76;100556.84;4977149;28;20054;-83
2024/01/05 09:53:50;;;;;;;68.32;41.20;;;;;;;8.49;91.70;100554.03;4975232;28;20540;-82
2024/01/05 09:56:18;;;;;;;77.25;44.08;;;;;;;8.30;92.21;100512.34;4977674;28;20054;-82
2024/01/05 09:58:45;;;;;;;75.60;43.28;;;;;;;8.20;92.07;100479.66;4964933;28;20062;-83
2024/01/05 10:01:23;;;;;;;76.30;42.20;;;;;;;8.61;91.86;100536.34;4961189;28;20042;-83
2024/01/05 10:03:59;;;;;;;72.68;41.65;;;;;;;8.74;91.34;100531.72;4966162;28;20062;-83
2024/01/05 10:06:33;;;;;;;68.63;40.90;;;;;;;8.72;91.46;100533.66;4967734;28;20473;-85
2024/01/05 10:09:01;;;;;;;80.18;42.15;;;;;;;8.83;91.86;100527.47;4976653;28;20054;-83
2024/01/05 10:11:32;;;;;;;69.82;42.05;;;;;;;8.84;91.25;100515.09;4966430;28;20105;-84
2024/01/05 10:14:07;;;;;;;74.57;43.10;;;;;;;8.82;90.86;100491.38;4957557;28;20054;-83
2024/01/05 10:16:37;;;;;;;66.03;40.50;;;;;;;8.84;90.87;100491.28;4982711;28;20050;-84
2024/01/05 10:19:18;;;;;;;69.68;40.60;;;;;;;8.98;90.90;100481.19;4958151;28;20050;-83
2024/01/05 10:21:47;;;;;;;70.22;41.20;;;;;;;9.00;90.11;100478.41;4965844;28;20053;-84
2024/01/05 10:24:29;;;;;;;69.43;39.05;;;;;;;9.08;89.40;100465.38;4973709;28;20645;-83
2024/01/05 10:27:09;;;;;;;68.78;39.83;;;;;;;9.29;89.37;100493.63;4968049;28;20058;-82
2024/01/05 10:29:43;;;;;;;72.43;41.78;;;;;;;9.41;88.58;100477.53;4957872;28;20283;-84
2024/01/05 10:32:19;;;;;;;66.78;38.85;;;;;;;9.47;87.90;100475.34;4944041;28;20051;-84
2024/01/05 10:34:48;;;;;;;69.70;38.15;;;;;;;9.55;87.49;100484.28;4972094;28;20457;-83
2024/01/05 10:37:16;;;;;;;67.97;41.55;;;;;;;9.55;87.22;100457.78;4978172;28;20042;-83
2024/01/05 10:39:47;;;;;;;67.57;39.63;;;;;;;9.24;86.77;100408.44;4981018;28;20107;-84
2024/01/05 10:42:21;;;;;;;64.70;39.17;;;;;;;9.61;87.31;100462.56;4956785;28;20417;-83
2024/01/05 10:44:54;;;;;;;75.22;39.25;;;;;;;9.21;86.71;100385.69;4972170;28;20536;-84
2024/01/05 10:47:31;;;;;;;73.72;40.30;;;;;;;9.58;87.29;100457.50;4952688;28;20441;-84
2024/01/05 10:50:06;;;;;;;68.00;39.30;;;;;;;9.44;87.66;100430.53;4962977;28;20050;-81
2024/01/05 10:52:34;;;;;;;75.28;40.83;;;;;;;9.65;87.30;100446.41;4987619;28;20232;-83
2024/01/05 10:55:03;;;;;;;75.20;42.55;;;;;;;9.71;87.08;100456.44;4978888;28;20056;-81
2024/01/05 10:57:35;;;;;;;71.82;40.80;;;;;;;9.72;86.98;100447.53;4987646;28;20141;-82
2024/01/05 11:00:05;;;;;;;79.07;42.33;;;;;;;9.61;87.20;100422.81;4979905;28;20125;-83
2024/01/05 11:02:40;;;;;;;69.18;40.72;;;;;;;9.57;86.90;100424.06;4967806;28;20062;-82
2024/01/05 11:05:11;;;;;;;78.07;41.35;;;;;;;9.67;86.72;100424.09;4956184;28;20297;-82
2024/01/05 11:07:40;;;;;;;66.22;39.50;;;;;;;9.33;87.01;100363.44;4967577;28;20140;-80
2024/01/05 11:10:29;;;;;;;66.82;41.70;;;;;;;9.77;87.72;100422.28;4972172;28;20517;-82
2024/01/05 11:13:34;;;;;;;78.40;42.88;;;;;;;9.78;86.89;100420.47;4955823;28;20501;-82
2024/01/05 11:16:06;;;;;;;74.28;43.95;;;;;;;9.78;86.48;100421.34;4973332;28;20473;-85
2024/01/05 11:18:52;;;;;;;70.63;40.50;;;;;;;9.73;87.14;100409.44;4946167;28;20129;-83
2024/01/05 11:21:42;;;;;;;76.78;44.72;;;;;;;9.62;87.62;100400.63;4981296;28;20472;-83
2024/01/05 11:24:09;;;;;;;76.95;46.78;;;;;;;9.56;87.56;100377.34;4966897;28;20112;-83